sensor_id;sensor_type;location;lat;lon;timestamp;P1;durP1;ratioP1;P2;durP2;ratioP2
59302;SDS011;45074;52.764;6.896;2022-09-13T00:00:43;18.95;;;14.80;;
59302;SDS011;45074;52.764;6.896;2022-09-13T00:03:11;20.60;;;15.43;;
59302;SDS011;45074;52.764;6.896;2022-09-13T00:05:37;20.48;;;14.80;;
59302;SDS011;45074;52.764;6.896;2022-09-13T00:08:03;19.45;;;14.77;;
59302;SDS011;45074;52.764;6.896;2022-09-13T00:10:30;19.77;;;15.82;;
59302;SDS011;45074;52.764;6.896;2022-09-13T00:12:58;21.38;;;15.82;;
59302;SDS011;45074;52.764;6.896;2022-09-13T00:15:25;22.30;;;16.05;;
59302;SDS011;45074;52.764;6.896;2022-09-13T00:17:51;21.75;;;15.35;;
59302;SDS011;45074;52.764;6.896;2022-09-13T00:20:17;19.55;;;14.88;;
59302;SDS011;45074;52.764;6.896;2022-09-13T00:22:43;21.65;;;16.58;;
59302;SDS011;45074;52.764;6.896;2022-09-13T00:25:09;22.15;;;15.95;;
59302;SDS011;45074;52.764;6.896;2022-09-13T00:27:35;20.67;;;15.38;;
59302;SDS011;45074;52.764;6.896;2022-09-13T00:30:02;20.50;;;16.30;;
59302;SDS011;45074;52.764;6.896;2022-09-13T00:32:29;20.08;;;15.50;;
59302;SDS011;45074;52.764;6.896;2022-09-13T00:34:55;21.48;;;15.93;;
59302;SDS011;45074;52.764;6.896;2022-09-13T00:37:21;17.63;;;14.80;;
59302;SDS011;45074;52.764;6.896;2022-09-13T00:39:47;19.48;;;15.25;;
59302;SDS011;45074;52.764;6.896;2022-09-13T00:42:13;18.58;;;14.02;;
59302;SDS011;45074;52.764;6.896;2022-09-13T00:44:53;18.00;;;14.30;;
59302;SDS011;45074;52.764;6.896;2022-09-13T00:47:23;18.08;;;13.75;;
59302;SDS011;45074;52.764;6.896;2022-09-13T00:52:30;17.00;;;13.13;;
59302;SDS011;45074;52.764;6.896;2022-09-13T00:55:00;16.80;;;12.85;;
59302;SDS011;45074;52.764;6.896;2022-09-13T00:57:30;18.27;;;13.15;;
59302;SDS011;45074;52.764;6.896;2022-09-13T01:00:04;18.27;;;13.25;;
59302;SDS011;45074;52.764;6.896;2022-09-13T01:02:59;16.65;;;13.30;;
59302;SDS011;45074;52.764;6.896;2022-09-13T01:05:28;16.40;;;13.25;;
59302;SDS011;45074;52.764;6.896;2022-09-13T01:07:57;18.00;;;13.52;;
59302;SDS011;45074;52.764;6.896;2022-09-13T01:10:24;17.55;;;13.85;;
59302;SDS011;45074;52.764;6.896;2022-09-13T01:15:26;16.98;;;13.45;;
59302;SDS011;45074;52.764;6.896;2022-09-13T01:17:52;16.52;;;13.00;;
59302;SDS011;45074;52.764;6.896;2022-09-13T01:20:19;16.90;;;13.10;;
59302;SDS011;45074;52.764;6.896;2022-09-13T01:25:59;17.17;;;13.15;;
59302;SDS011;45074;52.764;6.896;2022-09-13T01:34:17;17.35;;;13.27;;
59302;SDS011;45074;52.764;6.896;2022-09-13T01:56:55;16.25;;;13.43;;
59302;SDS011;45074;52.764;6.896;2022-09-13T02:01:24;19.02;;;14.35;;
59302;SDS011;45074;52.764;6.896;2022-09-13T02:04:18;18.88;;;13.95;;
59302;SDS011;45074;52.764;6.896;2022-09-13T02:06:55;17.10;;;13.60;;
59302;SDS011;45074;52.764;6.896;2022-09-13T02:09:33;19.23;;;14.27;;
59302;SDS011;45074;52.764;6.896;2022-09-13T02:12:06;17.48;;;13.05;;
59302;SDS011;45074;52.764;6.896;2022-09-13T02:14:39;20.98;;;12.88;;
59302;SDS011;45074;52.764;6.896;2022-09-13T02:17:09;18.48;;;14.32;;
59302;SDS011;45074;52.764;6.896;2022-09-13T02:19:56;17.95;;;14.02;;
59302;SDS011;45074;52.764;6.896;2022-09-13T02:22:26;19.13;;;15.05;;
59302;SDS011;45074;52.764;6.896;2022-09-13T02:24:58;20.63;;;15.07;;
59302;SDS011;45074;52.764;6.896;2022-09-13T02:27:30;19.23;;;15.23;;
59302;SDS011;45074;52.764;6.896;2022-09-13T02:30:00;19.58;;;14.85;;
59302;SDS011;45074;52.764;6.896;2022-09-13T02:32:30;18.08;;;14.40;;
59302;SDS011;45074;52.764;6.896;2022-09-13T02:37:28;19.25;;;14.60;;
59302;SDS011;45074;52.764;6.896;2022-09-13T02:39:58;18.52;;;14.75;;
59302;SDS011;45074;52.764;6.896;2022-09-13T02:42:30;19.70;;;15.00;;
59302;SDS011;45074;52.764;6.896;2022-09-13T02:45:10;19.67;;;15.00;;
59302;SDS011;45074;52.764;6.896;2022-09-13T02:47:42;20.38;;;15.65;;
59302;SDS011;45074;52.764;6.896;2022-09-13T02:53:08;18.83;;;15.10;;
59302;SDS011;45074;52.764;6.896;2022-09-13T02:58:41;20.42;;;16.92;;
59302;SDS011;45074;52.764;6.896;2022-09-13T03:01:08;21.35;;;16.23;;
59302;SDS011;45074;52.764;6.896;2022-09-13T03:03:35;20.85;;;16.73;;
59302;SDS011;45074;52.764;6.896;2022-09-13T03:06:01;21.95;;;17.05;;
59302;SDS011;45074;52.764;6.896;2022-09-13T03:08:27;21.98;;;17.17;;
59302;SDS011;45074;52.764;6.896;2022-09-13T03:13:24;24.05;;;17.05;;
59302;SDS011;45074;52.764;6.896;2022-09-13T03:15:58;22.70;;;17.65;;
59302;SDS011;45074;52.764;6.896;2022-09-13T03:32:18;23.95;;;18.73;;
59302;SDS011;45074;52.764;6.896;2022-09-13T03:39:56;25.83;;;19.48;;
59302;SDS011;45074;52.764;6.896;2022-09-13T03:42:42;26.27;;;19.67;;
59302;SDS011;45074;52.764;6.896;2022-09-13T03:45:12;23.08;;;18.42;;
59302;SDS011;45074;52.764;6.896;2022-09-13T03:47:40;26.85;;;19.95;;
59302;SDS011;45074;52.764;6.896;2022-09-13T03:50:10;26.58;;;20.20;;
59302;SDS011;45074;52.764;6.896;2022-09-13T03:52:44;24.50;;;19.63;;
59302;SDS011;45074;52.764;6.896;2022-09-13T03:55:12;25.77;;;20.80;;
59302;SDS011;45074;52.764;6.896;2022-09-13T03:57:38;26.60;;;20.25;;
59302;SDS011;45074;52.764;6.896;2022-09-13T04:00:04;24.88;;;19.90;;
59302;SDS011;45074;52.764;6.896;2022-09-13T04:02:31;26.23;;;20.27;;
59302;SDS011;45074;52.764;6.896;2022-09-13T04:04:57;27.75;;;21.38;;
59302;SDS011;45074;52.764;6.896;2022-09-13T04:07:23;25.27;;;20.98;;
59302;SDS011;45074;52.764;6.896;2022-09-13T04:09:49;26.50;;;21.00;;
59302;SDS011;45074;52.764;6.896;2022-09-13T04:12:16;24.50;;;20.00;;
59302;SDS011;45074;52.764;6.896;2022-09-13T04:14:43;28.63;;;21.23;;
59302;SDS011;45074;52.764;6.896;2022-09-13T04:17:09;27.02;;;21.05;;
59302;SDS011;45074;52.764;6.896;2022-09-13T04:19:35;26.10;;;20.55;;
59302;SDS011;45074;52.764;6.896;2022-09-13T04:22:01;25.75;;;20.33;;
59302;SDS011;45074;52.764;6.896;2022-09-13T04:24:28;26.80;;;20.35;;
59302;SDS011;45074;52.764;6.896;2022-09-13T04:26:55;27.35;;;21.60;;
59302;SDS011;45074;52.764;6.896;2022-09-13T04:29:22;30.08;;;20.52;;
59302;SDS011;45074;52.764;6.896;2022-09-13T04:31:49;25.60;;;20.92;;
59302;SDS011;45074;52.764;6.896;2022-09-13T04:34:16;26.85;;;21.52;;
59302;SDS011;45074;52.764;6.896;2022-09-13T04:36:43;26.17;;;21.25;;
59302;SDS011;45074;52.764;6.896;2022-09-13T04:39:10;28.48;;;21.75;;
59302;SDS011;45074;52.764;6.896;2022-09-13T04:41:38;27.85;;;21.25;;
59302;SDS011;45074;52.764;6.896;2022-09-13T04:44:04;28.58;;;21.85;;
59302;SDS011;45074;52.764;6.896;2022-09-13T04:46:30;26.05;;;20.38;;
59302;SDS011;45074;52.764;6.896;2022-09-13T04:48:56;29.52;;;22.15;;
59302;SDS011;45074;52.764;6.896;2022-09-13T04:51:22;28.20;;;22.08;;
59302;SDS011;45074;52.764;6.896;2022-09-13T04:53:52;27.67;;;21.70;;
59302;SDS011;45074;52.764;6.896;2022-09-13T04:56:19;30.13;;;22.45;;
59302;SDS011;45074;52.764;6.896;2022-09-13T04:58:47;29.15;;;22.27;;
59302;SDS011;45074;52.764;6.896;2022-09-13T05:01:13;28.27;;;21.75;;
59302;SDS011;45074;52.764;6.896;2022-09-13T05:03:39;27.75;;;21.63;;
59302;SDS011;45074;52.764;6.896;2022-09-13T05:06:06;30.48;;;23.05;;
59302;SDS011;45074;52.764;6.896;2022-09-13T05:08:33;28.20;;;22.77;;
59302;SDS011;45074;52.764;6.896;2022-09-13T05:10:59;28.25;;;22.48;;
59302;SDS011;45074;52.764;6.896;2022-09-13T05:13:25;25.42;;;21.27;;
59302;SDS011;45074;52.764;6.896;2022-09-13T05:15:55;27.45;;;21.92;;
59302;SDS011;45074;52.764;6.896;2022-09-13T05:18:29;27.85;;;23.08;;
59302;SDS011;45074;52.764;6.896;2022-09-13T05:20:56;29.23;;;22.75;;
59302;SDS011;45074;52.764;6.896;2022-09-13T05:23:23;28.88;;;23.50;;
59302;SDS011;45074;52.764;6.896;2022-09-13T05:25:53;30.48;;;23.58;;
59302;SDS011;45074;52.764;6.896;2022-09-13T05:28:26;28.08;;;23.77;;
59302;SDS011;45074;52.764;6.896;2022-09-13T05:30:57;29.55;;;22.50;;
59302;SDS011;45074;52.764;6.896;2022-09-13T05:33:24;28.13;;;23.02;;
59302;SDS011;45074;52.764;6.896;2022-09-13T05:35:54;29.95;;;23.58;;
59302;SDS011;45074;52.764;6.896;2022-09-13T05:38:20;30.10;;;23.50;;
59302;SDS011;45074;52.764;6.896;2022-09-13T05:40:46;29.50;;;22.65;;
59302;SDS011;45074;52.764;6.896;2022-09-13T05:43:12;28.90;;;22.40;;
59302;SDS011;45074;52.764;6.896;2022-09-13T05:45:39;29.65;;;22.60;;
59302;SDS011;45074;52.764;6.896;2022-09-13T05:48:05;27.35;;;21.80;;
59302;SDS011;45074;52.764;6.896;2022-09-13T05:50:31;26.45;;;21.98;;
59302;SDS011;45074;52.764;6.896;2022-09-13T05:53:01;28.42;;;21.38;;
59302;SDS011;45074;52.764;6.896;2022-09-13T05:55:27;32.50;;;22.83;;
59302;SDS011;45074;52.764;6.896;2022-09-13T05:57:53;29.58;;;21.92;;
59302;SDS011;45074;52.764;6.896;2022-09-13T06:00:19;27.13;;;21.48;;
59302;SDS011;45074;52.764;6.896;2022-09-13T06:02:45;29.70;;;22.38;;
59302;SDS011;45074;52.764;6.896;2022-09-13T06:05:11;29.67;;;21.92;;
59302;SDS011;45074;52.764;6.896;2022-09-13T06:07:39;28.70;;;21.90;;
59302;SDS011;45074;52.764;6.896;2022-09-13T06:10:06;28.25;;;21.35;;
59302;SDS011;45074;52.764;6.896;2022-09-13T06:12:32;26.92;;;21.70;;
59302;SDS011;45074;52.764;6.896;2022-09-13T06:14:58;28.00;;;20.73;;
59302;SDS011;45074;52.764;6.896;2022-09-13T06:17:24;29.98;;;21.98;;
59302;SDS011;45074;52.764;6.896;2022-09-13T06:19:50;27.13;;;20.10;;
59302;SDS011;45074;52.764;6.896;2022-09-13T06:22:16;26.83;;;20.35;;
59302;SDS011;45074;52.764;6.896;2022-09-13T06:24:42;26.52;;;20.17;;
59302;SDS011;45074;52.764;6.896;2022-09-13T06:27:08;27.52;;;20.80;;
59302;SDS011;45074;52.764;6.896;2022-09-13T06:29:35;27.15;;;19.75;;
59302;SDS011;45074;52.764;6.896;2022-09-13T06:32:04;27.80;;;20.20;;
59302;SDS011;45074;52.764;6.896;2022-09-13T06:34:30;29.30;;;19.85;;
59302;SDS011;45074;52.764;6.896;2022-09-13T06:36:56;27.23;;;18.90;;
59302;SDS011;45074;52.764;6.896;2022-09-13T06:39:22;23.85;;;17.88;;
59302;SDS011;45074;52.764;6.896;2022-09-13T06:41:48;26.33;;;18.80;;
59302;SDS011;45074;52.764;6.896;2022-09-13T06:44:14;23.52;;;17.95;;
59302;SDS011;45074;52.764;6.896;2022-09-13T06:46:40;21.95;;;15.90;;
59302;SDS011;45074;52.764;6.896;2022-09-13T06:49:06;20.17;;;14.90;;
59302;SDS011;45074;52.764;6.896;2022-09-13T06:51:34;23.40;;;16.08;;
59302;SDS011;45074;52.764;6.896;2022-09-13T06:54:00;17.60;;;14.15;;
59302;SDS011;45074;52.764;6.896;2022-09-13T06:56:29;20.40;;;15.20;;
59302;SDS011;45074;52.764;6.896;2022-09-13T06:59:04;18.92;;;14.68;;
59302;SDS011;45074;52.764;6.896;2022-09-13T07:01:36;21.00;;;13.63;;
59302;SDS011;45074;52.764;6.896;2022-09-13T07:04:04;17.70;;;12.77;;
59302;SDS011;45074;52.764;6.896;2022-09-13T07:06:30;18.33;;;13.25;;
59302;SDS011;45074;52.764;6.896;2022-09-13T07:08:58;17.73;;;12.40;;
59302;SDS011;45074;52.764;6.896;2022-09-13T07:11:26;15.05;;;10.55;;
59302;SDS011;45074;52.764;6.896;2022-09-13T07:13:55;14.10;;;9.40;;
59302;SDS011;45074;52.764;6.896;2022-09-13T07:16:25;12.77;;;8.50;;
59302;SDS011;45074;52.764;6.896;2022-09-13T07:18:53;12.77;;;8.43;;
59302;SDS011;45074;52.764;6.896;2022-09-13T07:21:20;14.05;;;8.45;;
59302;SDS011;45074;52.764;6.896;2022-09-13T07:23:47;13.52;;;8.50;;
59302;SDS011;45074;52.764;6.896;2022-09-13T07:26:13;12.75;;;7.50;;
59302;SDS011;45074;52.764;6.896;2022-09-13T07:28:40;11.25;;;6.60;;
59302;SDS011;45074;52.764;6.896;2022-09-13T07:31:12;10.40;;;5.82;;
59302;SDS011;45074;52.764;6.896;2022-09-13T07:34:10;9.55;;;6.20;;
59302;SDS011;45074;52.764;6.896;2022-09-13T07:36:37;9.65;;;5.57;;
59302;SDS011;45074;52.764;6.896;2022-09-13T07:39:04;8.50;;;4.35;;
59302;SDS011;45074;52.764;6.896;2022-09-13T07:41:31;7.22;;;4.15;;
59302;SDS011;45074;52.764;6.896;2022-09-13T07:43:57;9.43;;;4.63;;
59302;SDS011;45074;52.764;6.896;2022-09-13T07:46:28;7.05;;;4.38;;
59302;SDS011;45074;52.764;6.896;2022-09-13T07:48:58;7.88;;;4.68;;
59302;SDS011;45074;52.764;6.896;2022-09-13T07:51:28;8.30;;;4.43;;
59302;SDS011;45074;52.764;6.896;2022-09-13T07:53:59;8.15;;;4.50;;
59302;SDS011;45074;52.764;6.896;2022-09-13T07:56:27;8.20;;;4.10;;
59302;SDS011;45074;52.764;6.896;2022-09-13T07:58:56;7.95;;;3.60;;
59302;SDS011;45074;52.764;6.896;2022-09-13T08:01:25;6.65;;;3.60;;
59302;SDS011;45074;52.764;6.896;2022-09-13T08:03:53;5.75;;;3.50;;
59302;SDS011;45074;52.764;6.896;2022-09-13T08:06:27;11.73;;;3.95;;
59302;SDS011;45074;52.764;6.896;2022-09-13T08:08:55;7.95;;;3.25;;
59302;SDS011;45074;52.764;6.896;2022-09-13T08:11:22;8.30;;;3.53;;
59302;SDS011;45074;52.764;6.896;2022-09-13T08:14:17;6.88;;;3.13;;
59302;SDS011;45074;52.764;6.896;2022-09-13T08:16:44;6.50;;;3.33;;
59302;SDS011;45074;52.764;6.896;2022-09-13T08:19:11;7.93;;;3.22;;
59302;SDS011;45074;52.764;6.896;2022-09-13T08:21:40;10.43;;;2.97;;
59302;SDS011;45074;52.764;6.896;2022-09-13T08:24:07;8.05;;;2.55;;
59302;SDS011;45074;52.764;6.896;2022-09-13T08:26:37;7.57;;;2.80;;
59302;SDS011;45074;52.764;6.896;2022-09-13T08:29:04;8.20;;;2.58;;
59302;SDS011;45074;52.764;6.896;2022-09-13T08:31:30;8.23;;;2.80;;
59302;SDS011;45074;52.764;6.896;2022-09-13T08:33:56;5.60;;;3.00;;
59302;SDS011;45074;52.764;6.896;2022-09-13T08:36:23;6.30;;;2.40;;
59302;SDS011;45074;52.764;6.896;2022-09-13T08:38:51;5.75;;;2.25;;
59302;SDS011;45074;52.764;6.896;2022-09-13T08:44:12;6.00;;;1.95;;
59302;SDS011;45074;52.764;6.896;2022-09-13T08:49:45;7.22;;;2.03;;
59302;SDS011;45074;52.764;6.896;2022-09-13T08:55:13;4.90;;;1.50;;
59302;SDS011;45074;52.764;6.896;2022-09-13T08:58:31;5.60;;;1.30;;
59302;SDS011;45074;52.764;6.896;2022-09-13T09:01:14;6.35;;;1.60;;
59302;SDS011;45074;52.764;6.896;2022-09-13T09:06:30;6.65;;;1.70;;
59302;SDS011;45074;52.764;6.896;2022-09-13T09:09:02;6.70;;;1.58;;
59302;SDS011;45074;52.764;6.896;2022-09-13T09:11:43;6.88;;;1.60;;
59302;SDS011;45074;52.764;6.896;2022-09-13T09:14:14;6.35;;;1.60;;
59302;SDS011;45074;52.764;6.896;2022-09-13T09:16:49;7.35;;;2.35;;
59302;SDS011;45074;52.764;6.896;2022-09-13T09:19:21;5.20;;;1.50;;
59302;SDS011;45074;52.764;6.896;2022-09-13T09:21:54;5.30;;;1.70;;
59302;SDS011;45074;52.764;6.896;2022-09-13T09:24:23;4.25;;;1.48;;
59302;SDS011;45074;52.764;6.896;2022-09-13T09:26:51;9.45;;;1.63;;
59302;SDS011;45074;52.764;6.896;2022-09-13T09:29:28;3.47;;;1.20;;
59302;SDS011;45074;52.764;6.896;2022-09-13T09:38:03;2.85;;;1.00;;
59302;SDS011;45074;52.764;6.896;2022-09-13T09:40:35;2.92;;;1.10;;
59302;SDS011;45074;52.764;6.896;2022-09-13T09:43:24;4.93;;;1.20;;
59302;SDS011;45074;52.764;6.896;2022-09-13T09:45:51;4.57;;;1.40;;
59302;SDS011;45074;52.764;6.896;2022-09-13T09:48:20;4.38;;;1.40;;
59302;SDS011;45074;52.764;6.896;2022-09-13T09:50:51;4.15;;;1.33;;
59302;SDS011;45074;52.764;6.896;2022-09-13T09:53:32;4.28;;;1.17;;
59302;SDS011;45074;52.764;6.896;2022-09-13T09:58:53;3.60;;;1.08;;
59302;SDS011;45074;52.764;6.896;2022-09-13T10:01:30;4.40;;;1.10;;
59302;SDS011;45074;52.764;6.896;2022-09-13T10:06:30;5.35;;;1.20;;
59302;SDS011;45074;52.764;6.896;2022-09-13T10:09:01;3.33;;;1.10;;
59302;SDS011;45074;52.764;6.896;2022-09-13T10:11:49;2.25;;;1.00;;
59302;SDS011;45074;52.764;6.896;2022-09-13T10:14:29;4.25;;;1.20;;
59302;SDS011;45074;52.764;6.896;2022-09-13T10:19:50;4.45;;;1.48;;
59302;SDS011;45074;52.764;6.896;2022-09-13T10:22:22;3.47;;;0.98;;
59302;SDS011;45074;52.764;6.896;2022-09-13T10:24:49;3.55;;;1.00;;
59302;SDS011;45074;52.764;6.896;2022-09-13T10:27:57;3.78;;;1.20;;
59302;SDS011;45074;52.764;6.896;2022-09-13T10:30:07;4.03;;;0.80;;
59302;SDS011;45074;52.764;6.896;2022-09-13T10:32:54;4.05;;;1.17;;
59302;SDS011;45074;52.764;6.896;2022-09-13T10:35:21;2.55;;;0.90;;
59302;SDS011;45074;52.764;6.896;2022-09-13T10:37:47;5.28;;;0.80;;
59302;SDS011;45074;52.764;6.896;2022-09-13T10:40:17;2.58;;;0.82;;
59302;SDS011;45074;52.764;6.896;2022-09-13T10:42:55;5.20;;;0.90;;
59302;SDS011;45074;52.764;6.896;2022-09-13T10:45:23;2.95;;;0.80;;
59302;SDS011;45074;52.764;6.896;2022-09-13T10:47:51;3.58;;;0.80;;
59302;SDS011;45074;52.764;6.896;2022-09-13T10:50:24;3.13;;;0.80;;
59302;SDS011;45074;52.764;6.896;2022-09-13T10:52:56;3.30;;;0.90;;
59302;SDS011;45074;52.764;6.896;2022-09-13T11:03:30;3.33;;;0.70;;
59302;SDS011;45074;52.764;6.896;2022-09-13T11:06:14;2.00;;;0.88;;
59302;SDS011;45074;52.764;6.896;2022-09-13T11:11:49;4.53;;;0.95;;
59302;SDS011;45074;52.764;6.896;2022-09-13T11:17:51;3.55;;;0.93;;
59302;SDS011;45074;52.764;6.896;2022-09-13T11:32:25;5.05;;;0.90;;
59302;SDS011;45074;52.764;6.896;2022-09-13T11:35:07;3.25;;;0.80;;
59302;SDS011;45074;52.764;6.896;2022-09-13T11:37:48;4.63;;;1.23;;
59302;SDS011;45074;52.764;6.896;2022-09-13T11:40:36;8.60;;;0.90;;
59302;SDS011;45074;52.764;6.896;2022-09-13T11:46:08;4.95;;;0.80;;
59302;SDS011;45074;52.764;6.896;2022-09-13T11:51:57;3.28;;;0.80;;
59302;SDS011;45074;52.764;6.896;2022-09-13T12:02:51;4.88;;;0.82;;
59302;SDS011;45074;52.764;6.896;2022-09-13T12:05:34;4.22;;;0.80;;
59302;SDS011;45074;52.764;6.896;2022-09-13T12:08:05;4.22;;;0.98;;
59302;SDS011;45074;52.764;6.896;2022-09-13T12:10:51;4.18;;;0.70;;
59302;SDS011;45074;52.764;6.896;2022-09-13T12:13:29;5.07;;;0.90;;
59302;SDS011;45074;52.764;6.896;2022-09-13T12:16:01;4.55;;;0.70;;
59302;SDS011;45074;52.764;6.896;2022-09-13T12:21:11;2.63;;;0.90;;
59302;SDS011;45074;52.764;6.896;2022-09-13T12:23:50;1.90;;;0.60;;
59302;SDS011;45074;52.764;6.896;2022-09-13T12:26:34;2.67;;;0.60;;
59302;SDS011;45074;52.764;6.896;2022-09-13T12:31:40;6.40;;;0.82;;
59302;SDS011;45074;52.764;6.896;2022-09-13T12:34:07;4.30;;;0.70;;
59302;SDS011;45074;52.764;6.896;2022-09-13T12:39:33;5.20;;;0.95;;
59302;SDS011;45074;52.764;6.896;2022-09-13T12:50:01;3.83;;;0.90;;
59302;SDS011;45074;52.764;6.896;2022-09-13T12:55:34;3.97;;;0.77;;
59302;SDS011;45074;52.764;6.896;2022-09-13T12:58:28;3.13;;;0.55;;
59302;SDS011;45074;52.764;6.896;2022-09-13T13:01:10;4.40;;;0.73;;
59302;SDS011;45074;52.764;6.896;2022-09-13T13:03:50;5.03;;;1.00;;
59302;SDS011;45074;52.764;6.896;2022-09-13T13:08:49;5.03;;;1.00;;
59302;SDS011;45074;52.764;6.896;2022-09-13T13:11:18;5.00;;;0.90;;
59302;SDS011;45074;52.764;6.896;2022-09-13T13:13:45;4.18;;;0.70;;
59302;SDS011;45074;52.764;6.896;2022-09-13T13:16:31;4.15;;;0.80;;
59302;SDS011;45074;52.764;6.896;2022-09-13T13:19:01;3.75;;;0.80;;
59302;SDS011;45074;52.764;6.896;2022-09-13T13:26:45;6.38;;;1.00;;
59302;SDS011;45074;52.764;6.896;2022-09-13T13:29:16;5.18;;;0.90;;
59302;SDS011;45074;52.764;6.896;2022-09-13T13:36:53;4.55;;;0.80;;
59302;SDS011;45074;52.764;6.896;2022-09-13T13:46:52;3.25;;;0.73;;
59302;SDS011;45074;52.764;6.896;2022-09-13T13:57:04;4.13;;;0.90;;
59302;SDS011;45074;52.764;6.896;2022-09-13T13:59:42;3.85;;;0.68;;
59302;SDS011;45074;52.764;6.896;2022-09-13T14:02:10;4.32;;;0.70;;
59302;SDS011;45074;52.764;6.896;2022-09-13T14:09:34;5.53;;;0.75;;
59302;SDS011;45074;52.764;6.896;2022-09-13T14:22:13;1.83;;;0.40;;
59302;SDS011;45074;52.764;6.896;2022-09-13T14:24:40;3.28;;;0.60;;
59302;SDS011;45074;52.764;6.896;2022-09-13T14:27:12;3.97;;;0.80;;
59302;SDS011;45074;52.764;6.896;2022-09-13T14:29:43;3.95;;;0.80;;
59302;SDS011;45074;52.764;6.896;2022-09-13T14:32:11;3.72;;;0.80;;
59302;SDS011;45074;52.764;6.896;2022-09-13T14:34:48;3.55;;;0.80;;
59302;SDS011;45074;52.764;6.896;2022-09-13T14:37:17;4.25;;;0.90;;
59302;SDS011;45074;52.764;6.896;2022-09-13T14:39:53;5.45;;;1.00;;
59302;SDS011;45074;52.764;6.896;2022-09-13T14:42:19;5.18;;;0.93;;
59302;SDS011;45074;52.764;6.896;2022-09-13T14:44:46;5.65;;;0.95;;
59302;SDS011;45074;52.764;6.896;2022-09-13T14:50:27;3.95;;;0.80;;
59302;SDS011;45074;52.764;6.896;2022-09-13T14:52:57;3.60;;;0.70;;
59302;SDS011;45074;52.764;6.896;2022-09-13T14:55:34;4.88;;;0.77;;
59302;SDS011;45074;52.764;6.896;2022-09-13T14:58:05;4.38;;;0.80;;
59302;SDS011;45074;52.764;6.896;2022-09-13T15:00:46;4.35;;;0.90;;
59302;SDS011;45074;52.764;6.896;2022-09-13T15:03:15;2.13;;;0.70;;
59302;SDS011;45074;52.764;6.896;2022-09-13T15:05:48;5.55;;;0.93;;
59302;SDS011;45074;52.764;6.896;2022-09-13T15:11:00;4.38;;;0.90;;
59302;SDS011;45074;52.764;6.896;2022-09-13T15:13:27;4.93;;;0.90;;
59302;SDS011;45074;52.764;6.896;2022-09-13T15:15:53;4.30;;;0.90;;
59302;SDS011;45074;52.764;6.896;2022-09-13T15:23:17;5.35;;;0.90;;
59302;SDS011;45074;52.764;6.896;2022-09-13T15:28:32;7.10;;;1.58;;
59302;SDS011;45074;52.764;6.896;2022-09-13T15:31:01;5.53;;;2.00;;
59302;SDS011;45074;52.764;6.896;2022-09-13T15:33:30;7.60;;;1.60;;
59302;SDS011;45074;52.764;6.896;2022-09-13T15:41:35;5.47;;;1.20;;
59302;SDS011;45074;52.764;6.896;2022-09-13T15:44:03;5.28;;;1.00;;
59302;SDS011;45074;52.764;6.896;2022-09-13T15:46:30;5.32;;;1.10;;
59302;SDS011;45074;52.764;6.896;2022-09-13T15:49:03;8.75;;;1.10;;
59302;SDS011;45074;52.764;6.896;2022-09-13T15:51:32;4.20;;;0.93;;
59302;SDS011;45074;52.764;6.896;2022-09-13T15:54:00;3.45;;;1.00;;
59302;SDS011;45074;52.764;6.896;2022-09-13T15:56:33;5.10;;;1.00;;
59302;SDS011;45074;52.764;6.896;2022-09-13T15:59:03;5.97;;;1.13;;
59302;SDS011;45074;52.764;6.896;2022-09-13T16:01:29;6.22;;;1.02;;
59302;SDS011;45074;52.764;6.896;2022-09-13T16:03:56;8.15;;;1.33;;
59302;SDS011;45074;52.764;6.896;2022-09-13T16:06:22;5.28;;;1.30;;
59302;SDS011;45074;52.764;6.896;2022-09-13T16:08:48;5.22;;;1.10;;
59302;SDS011;45074;52.764;6.896;2022-09-13T16:11:14;4.97;;;1.10;;
59302;SDS011;45074;52.764;6.896;2022-09-13T16:13:40;6.10;;;1.23;;
59302;SDS011;45074;52.764;6.896;2022-09-13T16:16:06;6.13;;;1.10;;
59302;SDS011;45074;52.764;6.896;2022-09-13T16:18:32;7.63;;;1.63;;
59302;SDS011;45074;52.764;6.896;2022-09-13T16:20:58;7.38;;;1.00;;
59302;SDS011;45074;52.764;6.896;2022-09-13T16:23:24;4.70;;;0.98;;
59302;SDS011;45074;52.764;6.896;2022-09-13T16:25:52;5.28;;;1.00;;
59302;SDS011;45074;52.764;6.896;2022-09-13T16:28:21;6.55;;;1.13;;
59302;SDS011;45074;52.764;6.896;2022-09-13T16:30:47;6.00;;;0.93;;
59302;SDS011;45074;52.764;6.896;2022-09-13T16:33:14;6.95;;;1.40;;
59302;SDS011;45074;52.764;6.896;2022-09-13T16:35:39;5.88;;;1.00;;
59302;SDS011;45074;52.764;6.896;2022-09-13T16:38:05;4.10;;;0.80;;
59302;SDS011;45074;52.764;6.896;2022-09-13T16:40:31;7.88;;;1.17;;
59302;SDS011;45074;52.764;6.896;2022-09-13T16:42:57;8.98;;;1.45;;
59302;SDS011;45074;52.764;6.896;2022-09-13T16:45:23;4.72;;;0.98;;
59302;SDS011;45074;52.764;6.896;2022-09-13T16:47:49;7.93;;;1.35;;
59302;SDS011;45074;52.764;6.896;2022-09-13T16:50:16;5.10;;;1.00;;
59302;SDS011;45074;52.764;6.896;2022-09-13T16:52:42;6.00;;;1.17;;
59302;SDS011;45074;52.764;6.896;2022-09-13T16:55:08;5.05;;;1.17;;
59302;SDS011;45074;52.764;6.896;2022-09-13T16:57:34;6.75;;;1.38;;
59302;SDS011;45074;52.764;6.896;2022-09-13T17:00:01;5.25;;;1.05;;
59302;SDS011;45074;52.764;6.896;2022-09-13T17:02:31;4.72;;;1.05;;
59302;SDS011;45074;52.764;6.896;2022-09-13T17:04:57;5.65;;;1.13;;
59302;SDS011;45074;52.764;6.896;2022-09-13T17:07:23;7.80;;;1.20;;
59302;SDS011;45074;52.764;6.896;2022-09-13T17:09:49;7.18;;;2.10;;
59302;SDS011;45074;52.764;6.896;2022-09-13T17:12:16;6.32;;;1.10;;
59302;SDS011;45074;52.764;6.896;2022-09-13T17:14:42;5.65;;;1.20;;
59302;SDS011;45074;52.764;6.896;2022-09-13T17:17:11;8.52;;;1.15;;
59302;SDS011;45074;52.764;6.896;2022-09-13T17:19:39;4.47;;;0.93;;
59302;SDS011;45074;52.764;6.896;2022-09-13T17:22:05;5.70;;;1.00;;
59302;SDS011;45074;52.764;6.896;2022-09-13T17:24:34;6.20;;;0.93;;
59302;SDS011;45074;52.764;6.896;2022-09-13T17:27:01;6.35;;;0.98;;
59302;SDS011;45074;52.764;6.896;2022-09-13T17:29:28;6.90;;;1.30;;
59302;SDS011;45074;52.764;6.896;2022-09-13T17:31:56;7.93;;;1.23;;
59302;SDS011;45074;52.764;6.896;2022-09-13T17:34:22;5.38;;;1.20;;
59302;SDS011;45074;52.764;6.896;2022-09-13T17:36:48;5.68;;;1.10;;
59302;SDS011;45074;52.764;6.896;2022-09-13T17:39:14;5.40;;;1.00;;
59302;SDS011;45074;52.764;6.896;2022-09-13T17:41:40;7.13;;;1.40;;
59302;SDS011;45074;52.764;6.896;2022-09-13T17:44:06;8.30;;;1.20;;
59302;SDS011;45074;52.764;6.896;2022-09-13T17:46:33;6.15;;;1.00;;
59302;SDS011;45074;52.764;6.896;2022-09-13T17:48:59;5.63;;;0.95;;
59302;SDS011;45074;52.764;6.896;2022-09-13T17:51:26;5.63;;;1.00;;
59302;SDS011;45074;52.764;6.896;2022-09-13T17:53:54;5.47;;;1.00;;
59302;SDS011;45074;52.764;6.896;2022-09-13T17:56:26;3.72;;;1.10;;
59302;SDS011;45074;52.764;6.896;2022-09-13T17:59:08;7.32;;;1.13;;
59302;SDS011;45074;52.764;6.896;2022-09-13T18:01:36;5.15;;;0.90;;
59302;SDS011;45074;52.764;6.896;2022-09-13T18:04:04;7.45;;;1.20;;
59302;SDS011;45074;52.764;6.896;2022-09-13T18:06:31;7.25;;;1.25;;
59302;SDS011;45074;52.764;6.896;2022-09-13T18:08:57;6.47;;;1.10;;
59302;SDS011;45074;52.764;6.896;2022-09-13T18:11:23;7.07;;;1.20;;
59302;SDS011;45074;52.764;6.896;2022-09-13T18:13:49;8.27;;;1.25;;
59302;SDS011;45074;52.764;6.896;2022-09-13T18:16:17;8.93;;;1.30;;
59302;SDS011;45074;52.764;6.896;2022-09-13T18:18:44;4.07;;;1.20;;
59302;SDS011;45074;52.764;6.896;2022-09-13T18:21:11;8.32;;;1.77;;
59302;SDS011;45074;52.764;6.896;2022-09-13T18:23:44;6.10;;;1.50;;
59302;SDS011;45074;52.764;6.896;2022-09-13T18:26:11;6.85;;;1.83;;